Terminal Aerodrome Forecast
Issued by NWS Sioux Falls, SD

Home | Current Version | Previous Version | Text Only | Print | Product List | Glossary Off
Versions: 1 2 3 4 5 6 7 8 9 10 11 12 13 14 15 16 17 18 19 20 21 22 23 24 25 26 27 28 29 30 31 32 33 34 35

116
FTUS43 KFSD 230907 AAB
TAFSUX
TAF AMD
KSUX 230907Z 2309/2406 02013G19KT P6SM OVC009
     FM231400 04013KT P6SM OVC010
     FM231800 06015G23KT P6SM -RA OVC015
     FM240000 06020G28KT 5SM -RA BR OVC008
     FM240200 05017G26KT 2SM -RASN OVC007
     FM240400 04018G26KT 1/2SM SN VV005=

USA.gov is the U.S. government's official web portal to all federal, state and local government web resources and services.